Terminal Aerodrome Forecast
Issued by NWS

Home | Current Version | Previous Version | Text Only | Print | Product List | Glossary On
Versions: 1 2 3 4 5 6 7 8 9 10 11 12 13 14 15
000
FTUS45 KRIW 251314 AAA
TAFJAC
TAF AMD
KJAC 251314Z 2513/2612 21008KT P6SM VCSH SCT015 BKN040
      TEMPO 2513/2516 5SM -SN BKN020
     FM251600 29007KT P6SM VCSH SCT020 BKN035
     FM251900 34010KT P6SM VCSH SCT030 BKN045
      TEMPO 2519/2523 5SM -SHRASN BKN030
     FM260100 36006KT P6SM SCT050
     FM260800 VRB05KT 4SM -SHSN BKN030
      AMD LTD TO CLD VIS AND WIND=

USA.gov is the U.S. government's official web portal to all federal, state and local government web resources and services.